createdAt,value
2023-05-14T00:01:36.103Z,100735.91
2023-05-14T00:04:07.639Z,100729.33
2023-05-14T00:06:38.508Z,100728.38
2023-05-14T00:09:10.071Z,100727.48
2023-05-14T00:11:41.014Z,100728.02
2023-05-14T00:14:11.709Z,100720.66
2023-05-14T00:16:42.515Z,100720.54
2023-05-14T00:19:13.205Z,100723.06
2023-05-14T00:21:44.174Z,100714.74
2023-05-14T00:24:15.020Z,100712.48
2023-05-14T00:26:45.850Z,100710.84
2023-05-14T00:29:16.551Z,100705.91
2023-05-14T00:31:47.684Z,100704.52
2023-05-14T00:34:18.632Z,100701.30
2023-05-14T00:36:49.355Z,100696.33
2023-05-14T00:39:20.224Z,100693.34
2023-05-14T00:41:50.948Z,100692.39
2023-05-14T00:44:21.713Z,100691.05
2023-05-14T00:46:52.926Z,100690.73
2023-05-14T00:49:24.704Z,100693.98
2023-05-14T00:51:55.983Z,100690.73
2023-05-14T00:54:27.019Z,100692.01
2023-05-14T00:56:59.519Z,100693.88
2023-05-14T00:59:30.688Z,100695.88
2023-05-14T01:02:01.747Z,100691.13
2023-05-14T01:04:32.673Z,100690.48
2023-05-14T01:07:10.784Z,100695.05
2023-05-14T01:09:46.714Z,100691.88
2023-05-14T01:12:20.925Z,100690.32
2023-05-14T01:14:58.562Z,100684.68
2023-05-14T01:17:34.041Z,100689.70
2023-05-14T01:20:05.901Z,100684.35
2023-05-14T01:22:36.635Z,100682.29
2023-05-14T01:25:08.973Z,100681.16
2023-05-14T01:27:45.007Z,100681.48
2023-05-14T01:30:23.131Z,100676.17
2023-05-14T01:33:00.044Z,100677.28
2023-05-14T01:35:32.424Z,100678.83
2023-05-14T01:38:05.985Z,100676.23
2023-05-14T01:40:38.301Z,100677.63
2023-05-14T01:43:09.384Z,100674.98
2023-05-14T01:45:40.547Z,100671.57
2023-05-14T01:48:11.382Z,100675.80
2023-05-14T01:50:42.100Z,100679.41
2023-05-14T01:53:13.286Z,100681.31
2023-05-14T01:55:43.975Z,100679.36
2023-05-14T01:58:14.768Z,100679.63
2023-05-14T02:00:45.539Z,100681.85
2023-05-14T02:03:16.152Z,100679.63
2023-05-14T02:05:46.786Z,100679.57
2023-05-14T02:08:17.550Z,100676.08
2023-05-14T02:10:48.290Z,100672.55
2023-05-14T02:13:19.628Z,100675.30
2023-05-14T02:15:50.429Z,100670.04
2023-05-14T02:18:21.890Z,100669.51
2023-05-14T02:20:52.607Z,100669.30
2023-05-14T02:23:34.230Z,100666.05
2023-05-14T02:26:12.454Z,100670.25
2023-05-14T02:28:43.104Z,100669.03
2023-05-14T02:31:17.685Z,100667.88
2023-05-14T02:33:48.453Z,100664.87
2023-05-14T02:36:19.172Z,100666.63
2023-05-14T02:38:49.820Z,100671.91
2023-05-14T02:41:21.650Z,100670.31
2023-05-14T02:43:53.109Z,100667.11
2023-05-14T02:46:25.767Z,100665.11
2023-05-14T02:48:56.373Z,100667.69
2023-05-14T02:51:27.307Z,100668.54
2023-05-14T02:53:57.985Z,100663.92
2023-05-14T02:56:28.644Z,100664.61
2023-05-14T02:58:59.275Z,100662.31
2023-05-14T03:01:30.514Z,100661.17
2023-05-14T03:04:02.145Z,100663.54
2023-05-14T03:06:32.893Z,100664.26
2023-05-14T03:09:03.661Z,100662.09
2023-05-14T03:11:34.637Z,100661.54
2023-05-14T03:14:05.334Z,100660.26
2023-05-14T03:16:36.189Z,100665.27
2023-05-14T03:19:06.955Z,100662.77
2023-05-14T03:21:37.714Z,100663.58
2023-05-14T03:24:09.218Z,100660.05
2023-05-14T03:26:39.821Z,100663.13
2023-05-14T03:29:11.573Z,100663.17
2023-05-14T03:31:42.258Z,100662.39
2023-05-14T03:34:12.963Z,100663.52
2023-05-14T03:36:43.714Z,100662.55
2023-05-14T03:39:15.573Z,100658.44
2023-05-14T03:41:46.451Z,100651.39
2023-05-14T03:44:17.654Z,100647.60
2023-05-14T03:46:48.295Z,100640.33
2023-05-14T03:49:19.189Z,100642.98
2023-05-14T03:51:49.878Z,100643.73
2023-05-14T03:54:20.654Z,100641.25
2023-05-14T03:56:51.251Z,100645.61
2023-05-14T03:59:22.231Z,100645.21
2023-05-14T04:01:53.012Z,100641.98
2023-05-14T04:04:23.684Z,100638.92
2023-05-14T04:06:54.537Z,100636.95
2023-05-14T04:09:25.239Z,100629.57
2023-05-14T04:11:55.911Z,100628.34
2023-05-14T04:14:27.799Z,100627.52
2023-05-14T04:17:00.188Z,100629.24
2023-05-14T04:19:31.459Z,100625.23
2023-05-14T04:22:02.152Z,100629.73
2023-05-14T04:24:32.837Z,100631.29
2023-05-14T04:27:03.814Z,100629.48
2023-05-14T04:29:34.903Z,100626.02
2023-05-14T04:32:06.692Z,100627.38
2023-05-14T04:34:37.402Z,100629.35
2023-05-14T04:37:08.278Z,100623.95
2023-05-14T04:39:38.948Z,100625.20
2023-05-14T04:42:10.848Z,100620.90
2023-05-14T04:44:41.488Z,100614.48
2023-05-14T04:47:12.567Z,100613.32
2023-05-14T04:49:43.520Z,100611.33
2023-05-14T04:52:14.224Z,100611.17
2023-05-14T04:54:45.003Z,100608.42
2023-05-14T04:57:15.877Z,100601.27
2023-05-14T04:59:46.625Z,100606.20
2023-05-14T05:02:17.478Z,100609.23
2023-05-14T05:04:48.383Z,100606.35
2023-05-14T05:07:19.149Z,100606.46
2023-05-14T05:09:49.776Z,100605.35
2023-05-14T05:12:21.566Z,100601.19
2023-05-14T05:14:52.254Z,100604.09
2023-05-14T05:17:22.931Z,100607.04
2023-05-14T05:19:53.772Z,100603.84
2023-05-14T05:22:24.535Z,100602.64
2023-05-14T05:24:55.152Z,100599.88
2023-05-14T05:27:26.344Z,100591.02
2023-05-14T05:29:57.495Z,100589.12
2023-05-14T05:32:28.654Z,100585.91
2023-05-14T05:34:59.772Z,100588.80
2023-05-14T05:37:31.155Z,100588.31
2023-05-14T05:40:01.840Z,100588.13
2023-05-14T05:42:32.525Z,100585.60
2023-05-14T05:45:03.199Z,100578.17
2023-05-14T05:47:34.069Z,100574.02
2023-05-14T05:50:05.346Z,100572.30
2023-05-14T05:52:36.080Z,100572.55
2023-05-14T05:55:07.853Z,100570.93
2023-05-14T05:57:38.529Z,100569.60
2023-05-14T06:00:14.053Z,100568.36
2023-05-14T06:02:45.050Z,100569.29
2023-05-14T06:05:16.077Z,100569.05
2023-05-14T06:07:46.876Z,100570.13
2023-05-14T06:10:17.532Z,100571.73
2023-05-14T06:12:48.310Z,100566.30
2023-05-14T06:15:19.404Z,100573.56
2023-05-14T06:17:50.134Z,100572.46
2023-05-14T06:20:21.733Z,100568.73
2023-05-14T06:22:52.719Z,100562.44
2023-05-14T06:25:23.411Z,100556.48
2023-05-14T06:27:53.987Z,100561.04
2023-05-14T06:30:25.092Z,100563.08
2023-05-14T06:32:56.063Z,100563.62
2023-05-14T06:35:27.608Z,100561.96
2023-05-14T06:37:58.420Z,100558.92
2023-05-14T06:40:29.031Z,100555.81
2023-05-14T06:43:00.166Z,100555.13
2023-05-14T06:45:32.423Z,100551.24
2023-05-14T06:48:04.018Z,100550.86
2023-05-14T06:50:34.788Z,100544.98
2023-05-14T06:53:05.597Z,100545.64
2023-05-14T06:55:36.535Z,100546.91
2023-05-14T06:58:09.364Z,100548.02
2023-05-14T07:00:40.580Z,100544.45
2023-05-14T07:03:11.253Z,100541.73
2023-05-14T07:05:42.116Z,100539.06
2023-05-14T07:08:12.761Z,100532.26
2023-05-14T07:10:43.370Z,100533.96
2023-05-14T07:13:13.952Z,100534.23
2023-05-14T07:15:44.562Z,100529.77
2023-05-14T07:18:15.302Z,100524.55
2023-05-14T07:20:46.098Z,100521.51
2023-05-14T07:23:18.576Z,100517.29
2023-05-14T07:25:50.643Z,100513.64
2023-05-14T07:28:21.365Z,100507.92
2023-05-14T07:30:52.018Z,100510.67
2023-05-14T07:33:23.272Z,100510.70
2023-05-14T07:35:54.592Z,100511.83
2023-05-14T07:38:25.590Z,100512.73
2023-05-14T07:40:56.239Z,100510.14
2023-05-14T07:43:27.116Z,100507.55
2023-05-14T07:45:57.893Z,100504.31
2023-05-14T07:48:28.714Z,100500.89
2023-05-14T07:50:59.402Z,100503.21
2023-05-14T07:53:30.382Z,100498.31
2023-05-14T07:56:01.069Z,100492.64
2023-05-14T07:58:31.974Z,100492.42
2023-05-14T08:01:06.982Z,100492.27
2023-05-14T08:03:37.749Z,100493.33
2023-05-14T08:06:09.051Z,100494.42
2023-05-14T08:08:39.761Z,100492.83
2023-05-14T08:11:10.997Z,100488.01
2023-05-14T08:13:41.964Z,100491.27
2023-05-14T08:16:12.836Z,100490.90
2023-05-14T08:18:43.472Z,100494.48
2023-05-14T08:21:14.093Z,100489.10
2023-05-14T08:23:45.529Z,100489.45
2023-05-14T08:26:16.109Z,100486.40
2023-05-14T08:28:46.857Z,100481.36
2023-05-14T08:31:17.578Z,100479.90
2023-05-14T08:33:48.181Z,100476.34
2023-05-14T08:36:18.743Z,100477.61
2023-05-14T08:38:50.416Z,100476.84
2023-05-14T08:41:22.343Z,100475.55
2023-05-14T08:43:58.110Z,100478.73
2023-05-14T08:46:31.367Z,100482.45
2023-05-14T08:49:12.433Z,100485.23
2023-05-14T08:51:43.419Z,100482.41
2023-05-14T08:54:17.092Z,100480.04
2023-05-14T08:56:50.513Z,100474.36
2023-05-14T08:59:22.583Z,100474.45
2023-05-14T09:01:55.424Z,100472.67
2023-05-14T09:04:27.574Z,100480.59
2023-05-14T09:06:58.393Z,100476.25
2023-05-14T09:09:29.623Z,100473.30
2023-05-14T09:12:02.290Z,100470.50
2023-05-14T09:14:33.967Z,100465.27
2023-05-14T09:17:05.390Z,100469.02
2023-05-14T09:19:38.102Z,100468.01
2023-05-14T09:22:13.113Z,100470.29
2023-05-14T09:24:44.848Z,100466.55
2023-05-14T09:27:21.600Z,100464.13
2023-05-14T09:29:52.332Z,100462.58
2023-05-14T09:32:22.998Z,100456.59
2023-05-14T09:34:54.288Z,100454.73
2023-05-14T09:37:26.083Z,100454.16
2023-05-14T09:39:57.526Z,100448.77
2023-05-14T09:42:28.381Z,100445.50
2023-05-14T09:44:59.582Z,100447.02
2023-05-14T09:47:30.331Z,100442.14
2023-05-14T09:50:01.217Z,100441.02
2023-05-14T09:52:32.237Z,100434.15
2023-05-14T09:55:04.125Z,100435.16
2023-05-14T09:57:35.403Z,100428.89
2023-05-14T10:00:08.894Z,100427.59
2023-05-14T10:02:41.665Z,100426.81
2023-05-14T10:05:16.020Z,100420.95
2023-05-14T10:07:50.616Z,100420.02
2023-05-14T10:10:24.370Z,100415.30
2023-05-14T10:12:58.344Z,100410.02
2023-05-14T10:15:35.045Z,100410.09
2023-05-14T10:18:12.118Z,100399.26
2023-05-14T10:20:43.211Z,100393.14
2023-05-14T10:23:14.092Z,100387.79
2023-05-14T10:25:45.261Z,100389.44
2023-05-14T10:28:16.186Z,100387.38
2023-05-14T10:30:49.570Z,100376.43
2023-05-14T10:33:20.395Z,100377.40
2023-05-14T10:36:04.169Z,100378.39
2023-05-14T10:38:35.882Z,100375.70
2023-05-14T10:41:08.770Z,100375.88
2023-05-14T10:43:41.413Z,100374.36
2023-05-14T10:46:14.130Z,100368.11
2023-05-14T10:48:46.721Z,100364.95
2023-05-14T10:51:20.857Z,100369.01
2023-05-14T10:53:52.199Z,100368.37
2023-05-14T10:56:23.150Z,100366.53
2023-05-14T10:58:59.291Z,100372.08
2023-05-14T11:01:30.638Z,100366.62
2023-05-14T11:04:04.104Z,100362.36
2023-05-14T11:06:35.510Z,100360.42
2023-05-14T11:09:07.509Z,100359.34
2023-05-14T11:11:38.646Z,100359.40
2023-05-14T11:14:10.441Z,100357.58
2023-05-14T11:16:41.467Z,100350.11
2023-05-14T11:19:13.649Z,100345.02
2023-05-14T11:21:44.612Z,100353.54
2023-05-14T11:24:15.699Z,100346.33
2023-05-14T11:26:46.405Z,100346.46
2023-05-14T11:29:17.148Z,100344.59
2023-05-14T11:31:47.865Z,100350.91
2023-05-14T11:34:18.704Z,100346.28
2023-05-14T11:36:49.681Z,100339.78
2023-05-14T11:39:21.963Z,100340.36
2023-05-14T11:41:52.672Z,100337.85
2023-05-14T11:44:23.553Z,100332.26
2023-05-14T11:47:01.408Z,100330.62
2023-05-14T11:49:30.471Z,100329.93
2023-05-14T11:52:01.829Z,100327.84
2023-05-14T11:54:33.137Z,100321.62
2023-05-14T11:57:08.956Z,100320.52
2023-05-14T11:59:40.050Z,100315.65
2023-05-14T12:02:13.867Z,100316.59
2023-05-14T12:04:45.909Z,100311.58
2023-05-14T12:07:17.830Z,100307.92
2023-05-14T12:09:49.963Z,100299.98
2023-05-14T12:12:22.878Z,100296.35
2023-05-14T12:14:53.772Z,100296.00
2023-05-14T12:17:25.034Z,100288.84
2023-05-14T12:19:58.227Z,100289.30
2023-05-14T12:22:30.665Z,100287.64
2023-05-14T12:25:02.004Z,100283.46
2023-05-14T12:27:32.865Z,100284.30
2023-05-14T12:32:41.596Z,100277.05
2023-05-14T12:35:12.765Z,100274.46
2023-05-14T12:37:43.619Z,100275.20
2023-05-14T12:40:15.370Z,100269.92
2023-05-14T12:42:46.001Z,100264.59
2023-05-14T12:45:16.628Z,100262.59
2023-05-14T12:47:47.651Z,100257.98
2023-05-14T12:50:18.212Z,100257.60
2023-05-14T12:52:48.943Z,100250.67
2023-05-14T12:55:19.773Z,100245.27
2023-05-14T12:57:50.614Z,100241.29
2023-05-14T13:00:22.289Z,100243.15
2023-05-14T13:02:53.176Z,100237.35
2023-05-14T13:05:23.954Z,100234.45
2023-05-14T13:07:55.697Z,100230.31
2023-05-14T13:10:26.424Z,100237.33
2023-05-14T13:12:58.189Z,100239.44
2023-05-14T13:15:28.957Z,100237.23
2023-05-14T13:17:59.656Z,100237.94
2023-05-14T13:20:31.106Z,100239.98
2023-05-14T13:23:01.843Z,100238.85
2023-05-14T13:25:32.696Z,100238.30
2023-05-14T13:28:03.296Z,100237.63
2023-05-14T13:30:34.089Z,100233.04
2023-05-14T13:33:05.256Z,100231.65
2023-05-14T13:35:36.147Z,100224.92
2023-05-14T13:38:07.740Z,100224.77
2023-05-14T13:40:38.287Z,100221.28
2023-05-14T13:43:09.033Z,100221.55
2023-05-14T13:45:39.632Z,100218.46
2023-05-14T13:48:10.660Z,100226.86
2023-05-14T13:50:41.337Z,100231.12
2023-05-14T13:53:11.998Z,100227.27
2023-05-14T13:55:43.287Z,100224.41
2023-05-14T13:58:13.392Z,100221.23
2023-05-14T14:00:44.064Z,100224.52
2023-05-14T14:03:14.737Z,100221.98
2023-05-14T14:05:45.403Z,100220.81
2023-05-14T14:08:23.566Z,100210.52
2023-05-14T14:10:55.786Z,100213.52
2023-05-14T14:13:26.554Z,100208.99
2023-05-14T14:15:57.431Z,100213.55
2023-05-14T14:18:28.334Z,100202.38
2023-05-14T14:20:59.317Z,100194.52
2023-05-14T14:23:30.005Z,100189.11
2023-05-14T14:26:01.048Z,100188.50
2023-05-14T14:28:32.036Z,100191.73
2023-05-14T14:31:02.880Z,100184.48
2023-05-14T14:33:33.675Z,100184.84
2023-05-14T14:36:04.590Z,100186.17
2023-05-14T14:38:35.265Z,100179.38
2023-05-14T14:41:07.972Z,100183.55
2023-05-14T14:43:40.269Z,100179.20
2023-05-14T14:46:11.245Z,100179.59
2023-05-14T14:48:42.554Z,100176.56
2023-05-14T14:51:13.299Z,100178.39
2023-05-14T14:53:44.092Z,100176.10
2023-05-14T14:56:14.704Z,100180.90
2023-05-14T14:58:45.607Z,100174.35
2023-05-14T15:01:17.074Z,100173.46
2023-05-14T15:03:48.473Z,100165.22
2023-05-14T15:06:19.336Z,100169.59
2023-05-14T15:08:50.013Z,100167.19
2023-05-14T15:11:20.916Z,100171.50
2023-05-14T15:13:51.606Z,100169.81
2023-05-14T15:16:22.285Z,100164.83
2023-05-14T15:18:53.268Z,100167.59
2023-05-14T15:21:24.317Z,100170.05
2023-05-14T15:23:54.940Z,100166.46
2023-05-14T15:26:26.332Z,100171.95
2023-05-14T15:28:58.408Z,100171.30
2023-05-14T15:31:27.467Z,100166.80
2023-05-14T15:33:58.250Z,100164.83
2023-05-14T15:36:29.605Z,100163.39
2023-05-14T15:39:00.482Z,100164.39
2023-05-14T15:41:31.277Z,100158.00
2023-05-14T15:44:02.039Z,100153.96
2023-05-14T15:46:33.721Z,100157.17
2023-05-14T15:49:04.573Z,100155.48
2023-05-14T15:51:35.265Z,100154.78
2023-05-14T15:54:06.169Z,100159.78
2023-05-14T15:56:36.864Z,100154.52
2023-05-14T15:59:07.934Z,100150.09
2023-05-14T16:01:38.578Z,100149.52
2023-05-14T16:04:09.447Z,100149.73
2023-05-14T16:06:42.030Z,100146.13
2023-05-14T16:09:12.988Z,100145.11
2023-05-14T16:11:43.649Z,100144.20
2023-05-14T16:14:14.444Z,100145.08
2023-05-14T16:16:45.320Z,100145.61
2023-05-14T16:19:16.228Z,100150.02
2023-05-14T16:21:47.031Z,100145.36
2023-05-14T16:24:20.195Z,100148.21
2023-05-14T16:26:50.954Z,100152.69
2023-05-14T16:29:21.696Z,100165.08
2023-05-14T16:31:52.547Z,100165.13
2023-05-14T16:34:23.246Z,100164.90
2023-05-14T16:36:53.980Z,100167.40
2023-05-14T16:39:24.855Z,100171.50
2023-05-14T16:41:55.529Z,100174.70
2023-05-14T16:44:26.260Z,100168.33
2023-05-14T16:46:57.225Z,100173.67
2023-05-14T16:49:27.841Z,100167.95
2023-05-14T16:51:58.607Z,100169.86
2023-05-14T16:54:29.407Z,100163.69
2023-05-14T16:57:00.116Z,100166.56
2023-05-14T16:59:30.985Z,100164.78
2023-05-14T17:02:01.629Z,100162.10
2023-05-14T17:04:33.397Z,100158.61
2023-05-14T17:07:04.598Z,100155.65
2023-05-14T17:09:35.230Z,100155.17
2023-05-14T17:12:06.913Z,100153.91
2023-05-14T17:14:37.518Z,100153.92
2023-05-14T17:17:08.333Z,100147.73
2023-05-14T17:19:38.936Z,100141.11
2023-05-14T17:22:09.613Z,100142.89
2023-05-14T17:24:40.299Z,100143.09
2023-05-14T17:27:11.119Z,100146.05
2023-05-14T17:29:46.260Z,100144.11
2023-05-14T17:32:17.123Z,100148.50
2023-05-14T17:34:48.046Z,100153.77
2023-05-14T17:37:18.659Z,100155.06
2023-05-14T17:39:49.365Z,100153.29
2023-05-14T17:42:20.095Z,100158.57
2023-05-14T17:44:50.769Z,100156.31
2023-05-14T17:47:21.976Z,100158.66
2023-05-14T17:49:52.783Z,100153.60
2023-05-14T17:52:23.380Z,100152.97
2023-05-14T17:54:54.460Z,100150.55
2023-05-14T17:57:25.331Z,100151.41
2023-05-14T17:59:56.068Z,100153.58
2023-05-14T18:02:26.891Z,100151.50
2023-05-14T18:04:57.817Z,100150.03
2023-05-14T18:07:28.451Z,100150.33
2023-05-14T18:09:59.324Z,100152.96
2023-05-14T18:12:30.213Z,100151.27
2023-05-14T18:15:00.877Z,100150.12
2023-05-14T18:17:31.911Z,100148.81
2023-05-14T18:20:03.341Z,100145.44
2023-05-14T18:22:34.095Z,100149.29
2023-05-14T18:25:05.194Z,100152.27
2023-05-14T18:27:39.502Z,100150.04
2023-05-14T18:30:13.343Z,100151.14
2023-05-14T18:32:45.072Z,100152.89
2023-05-14T18:35:16.137Z,100155.59
2023-05-14T18:37:46.759Z,100156.14
2023-05-14T18:40:18.666Z,100160.52
2023-05-14T18:42:49.718Z,100155.78
2023-05-14T18:45:21.656Z,100160.75
2023-05-14T18:47:52.537Z,100163.59
2023-05-14T18:50:23.407Z,100162.55
2023-05-14T18:52:54.137Z,100167.36
2023-05-14T18:55:25.126Z,100169.72
2023-05-14T18:57:56.102Z,100175.52
2023-05-14T19:00:26.818Z,100179.19
2023-05-14T19:02:57.824Z,100180.14
2023-05-14T19:05:28.561Z,100182.61
2023-05-14T19:07:59.522Z,100181.48
2023-05-14T19:10:30.522Z,100186.69
2023-05-14T19:13:02.039Z,100192.67
2023-05-14T19:15:32.731Z,100193.54
2023-05-14T19:18:03.778Z,100191.56
2023-05-14T19:20:34.434Z,100194.23
2023-05-14T19:23:05.145Z,100191.40
2023-05-14T19:25:36.016Z,100191.84
2023-05-14T19:28:07.197Z,100190.66
2023-05-14T19:30:37.869Z,100192.90
2023-05-14T19:33:08.807Z,100189.95
2023-05-14T19:35:39.710Z,100194.50
2023-05-14T19:38:10.923Z,100193.03
2023-05-14T19:40:42.963Z,100192.67
2023-05-14T19:43:14.579Z,100196.56
2023-05-14T19:45:45.957Z,100193.52
2023-05-14T19:48:19.167Z,100192.13
2023-05-14T19:50:49.812Z,100192.27
2023-05-14T19:53:20.659Z,100182.49
2023-05-14T19:55:51.326Z,100181.94
2023-05-14T19:58:21.965Z,100183.58
2023-05-14T20:00:54.505Z,100182.47
2023-05-14T20:03:27.031Z,100180.09
2023-05-14T20:05:58.333Z,100178.60
2023-05-14T20:08:29.713Z,100179.66
2023-05-14T20:11:00.660Z,100174.66
2023-05-14T20:13:32.956Z,100168.09
2023-05-14T20:16:02.369Z,100165.98
2023-05-14T20:18:33.275Z,100165.42
2023-05-14T20:21:04.009Z,100158.30
2023-05-14T20:23:36.216Z,100156.77
2023-05-14T20:26:05.492Z,100157.70
2023-05-14T20:28:36.118Z,100159.85
2023-05-14T20:31:06.919Z,100156.54
2023-05-14T20:33:37.751Z,100160.16
2023-05-14T20:36:08.642Z,100155.39
2023-05-14T20:38:40.943Z,100150.85
2023-05-14T20:41:10.095Z,100141.92
2023-05-14T20:43:40.803Z,100139.52
2023-05-14T20:46:11.642Z,100137.21
2023-05-14T20:48:42.478Z,100135.02
2023-05-14T20:51:13.030Z,100131.34
2023-05-14T20:53:43.835Z,100130.91
2023-05-14T20:56:14.774Z,100128.02
2023-05-14T20:58:45.370Z,100123.67
2023-05-14T21:01:15.991Z,100122.56
2023-05-14T21:03:47.028Z,100119.94
2023-05-14T21:06:17.966Z,100114.19
2023-05-14T21:08:48.641Z,100116.91
2023-05-14T21:11:20.522Z,100111.85
2023-05-14T21:13:51.100Z,100112.23
2023-05-14T21:16:21.916Z,100112.45
2023-05-14T21:18:52.979Z,100107.40
2023-05-14T21:21:23.828Z,100109.44
2023-05-14T21:23:54.659Z,100106.77
2023-05-14T21:26:25.868Z,100106.70
2023-05-14T21:28:56.509Z,100104.38
2023-05-14T21:31:27.448Z,100103.58
2023-05-14T21:33:58.279Z,100097.29
2023-05-14T21:36:29.051Z,100099.59
2023-05-14T21:38:59.921Z,100099.06
2023-05-14T21:41:31.346Z,100103.83
2023-05-14T21:44:02.010Z,100098.55
2023-05-14T21:46:32.990Z,100097.08
2023-05-14T21:49:03.638Z,100092.98
2023-05-14T21:51:34.623Z,100090.66
2023-05-14T21:54:05.729Z,100081.32
2023-05-14T21:56:37.754Z,100080.38
2023-05-14T21:59:08.562Z,100073.11
2023-05-14T22:02:04.924Z,100068.73
2023-05-14T22:04:30.036Z,100070.70
2023-05-14T22:07:01.508Z,100067.48
2023-05-14T22:09:32.246Z,100063.72
2023-05-14T22:12:03.033Z,100062.42
2023-05-14T22:14:33.624Z,100064.24
2023-05-14T22:17:04.684Z,100064.44
2023-05-14T22:19:35.418Z,100064.13
2023-05-14T22:22:06.338Z,100064.92
2023-05-14T22:24:37.039Z,100062.32
2023-05-14T22:27:08.406Z,100057.70
2023-05-14T22:29:39.013Z,100057.64
2023-05-14T22:32:10.338Z,100053.17
2023-05-14T22:34:41.517Z,100051.63
2023-05-14T22:37:12.201Z,100047.89
2023-05-14T22:39:42.880Z,100047.05
2023-05-14T22:42:13.683Z,100045.26
2023-05-14T22:44:44.290Z,100043.36
2023-05-14T22:47:15.100Z,100044.98
2023-05-14T22:49:45.683Z,100041.80
2023-05-14T22:52:16.347Z,100042.02
2023-05-14T22:54:46.945Z,100040.13
2023-05-14T22:57:17.685Z,100030.77
2023-05-14T22:59:48.671Z,100027.11
2023-05-14T23:02:19.621Z,100024.58
2023-05-14T23:04:50.523Z,100018.06
2023-05-14T23:07:21.329Z,100020.41
2023-05-14T23:09:52.048Z,100015.11
2023-05-14T23:12:22.708Z,100013.11
2023-05-14T23:14:53.394Z,100007.97
2023-05-14T23:17:24.275Z,100004.41
2023-05-14T23:19:55.178Z,100001.88
2023-05-14T23:22:26.003Z,99997.11
2023-05-14T23:24:56.654Z,99997.09
2023-05-14T23:27:27.308Z,99995.63
2023-05-14T23:29:57.868Z,99992.05
2023-05-14T23:32:28.754Z,99990.71
2023-05-14T23:34:59.453Z,99988.52
2023-05-14T23:37:30.095Z,99979.77
2023-05-14T23:40:01.744Z,99977.73
2023-05-14T23:42:32.516Z,99977.55
2023-05-14T23:45:03.241Z,99971.92
2023-05-14T23:47:34.264Z,99973.85
2023-05-14T23:50:05.275Z,99970.40
2023-05-14T23:52:35.910Z,99966.68
2023-05-14T23:55:07.990Z,99963.73
2023-05-14T23:57:38.736Z,99959.12
